Time;durP1;ratioP1;P1;durP2;ratioP2;P2;SDS_P1;SDS_P2;PMS_P1;PMS_P2;Temp;Humidity;BMP_temperature;BMP_pressure;BME280_temperature;BME280_humidity;BME280_pressure;Samples;Min_cycle;Max_cycle;Signal;HPM_P1;HPM_P2
2022/09/13 00:02:07;;;;;;;18.98;12.93;;;17.70;99.90;;;;;;4940503;28;213216;-68
2022/09/13 00:04:33;;;;;;;19.83;12.98;;;17.70;99.90;;;;;;4973461;28;20479;-68
2022/09/13 00:07:00;;;;;;;20.17;13.55;;;17.70;99.90;;;;;;4942982;28;209780;-68
2022/09/13 00:09:26;;;;;;;22.50;14.20;;;17.70;99.90;;;;;;4968986;28;20058;-69
2022/09/13 00:11:53;;;;;;;21.70;14.38;;;17.70;99.90;;;;;;4926429;28;202029;-69
2022/09/13 00:14:19;;;;;;;21.30;14.90;;;17.70;99.90;;;;;;4990865;28;20047;-69
2022/09/13 00:16:45;;;;;;;21.83;15.52;;;17.70;99.90;;;;;;4959004;28;210754;-69
2022/09/13 00:19:11;;;;;;;24.10;16.75;;;17.70;99.90;;;;;;4980775;28;20062;-70
2022/09/13 00:21:37;;;;;;;23.83;16.92;;;17.70;99.90;;;;;;4938891;28;212967;-71
2022/09/13 00:24:04;;;;;;;24.13;16.73;;;17.70;99.90;;;;;;4985934;28;20089;-70
2022/09/13 00:26:30;;;;;;;27.02;16.92;;;17.60;99.90;;;;;;4952238;28;210574;-70
2022/09/13 00:28:57;;;;;;;26.20;18.25;;;17.60;99.90;;;;;;4979186;28;20108;-70
2022/09/13 00:31:26;;;;;;;27.38;18.75;;;17.60;99.90;;;;;;4937068;28;211051;-69
2022/09/13 00:33:53;;;;;;;27.00;18.60;;;17.60;99.90;;;;;;4976803;28;20051;-68
2022/09/13 00:36:19;;;;;;;27.27;19.30;;;17.50;99.90;;;;;;4933284;28;211119;-69
2022/09/13 00:38:45;;;;;;;30.38;19.65;;;17.50;99.90;;;;;;4980540;28;20054;-69
2022/09/13 00:41:14;;;;;;;29.80;19.00;;;17.50;99.90;;;;;;4950361;28;214036;-69
2022/09/13 00:43:55;;;;;;;31.67;20.40;;;17.40;99.90;;;;;;4990947;28;20062;-69
2022/09/13 00:46:48;;;;;;;30.15;20.23;;;17.40;99.90;;;;;;4927944;28;206880;-70
2022/09/13 00:49:19;;;;;;;28.40;19.08;;;17.30;99.90;;;;;;4981992;28;20046;-70
2022/09/13 00:51:57;;;;;;;28.58;19.30;;;17.30;99.90;;;;;;4931323;28;169976;-69
2022/09/13 00:54:28;;;;;;;26.20;18.15;;;17.30;99.90;;;;;;4981803;28;20053;-69
2022/09/13 00:56:56;;;;;;;;;;;17.30;99.90;;;;;;4950004;28;206386;-70
2022/09/13 00:59:27;;;;;;;23.90;16.60;;;17.30;99.90;;;;;;4979115;28;19932;-70
2022/09/13 01:01:55;;;;;;;27.25;17.67;;;17.20;99.90;;;;;;4956755;28;199208;-71
2022/09/13 01:04:25;;;;;;;24.08;15.63;;;17.30;99.90;;;;;;4993279;28;20058;-71
2022/09/13 01:06:55;;;;;;;25.42;15.73;;;17.30;99.90;;;;;;4945513;28;212144;-69
2022/09/13 01:09:22;;;;;;;22.13;15.15;;;17.30;99.90;;;;;;4984313;28;20057;-70
2022/09/13 01:12:03;;;;;;;25.10;15.18;;;17.30;99.90;;;;;;4938439;28;209770;-70
2022/09/13 01:14:31;;;;;;;22.92;15.82;;;17.30;99.90;;;;;;4983977;28;20057;-70
2022/09/13 01:16:57;;;;;;;21.30;15.40;;;17.30;99.90;;;;;;4949218;28;178680;-71
2022/09/13 01:19:23;;;;;;;22.67;15.95;;;17.30;99.90;;;;;;4992170;28;20049;-70
2022/09/13 01:22:11;;;;;;;23.85;17.05;;;17.30;99.90;;;;;;4923799;28;215387;-70
2022/09/13 01:25:03;;;;;;;28.52;18.40;;;17.30;99.90;;;;;;4983229;28;20079;-70
2022/09/13 01:27:43;;;;;;;23.60;17.02;;;17.30;99.90;;;;;;4885687;29;163237;-70
2022/09/13 01:30:17;;;;;;;26.30;17.73;;;17.30;99.90;;;;;;4880578;29;206146;-72
2022/09/13 01:32:53;;;;;;;24.13;16.42;;;17.30;99.90;;;;;;4927373;29;20292;-70
2022/09/13 01:36:02;;;;;;;25.25;16.70;;;17.40;99.90;;;;;;4878310;29;209403;-70
2022/09/13 01:38:43;;;;;;;27.08;18.20;;;17.30;99.90;;;;;;4930439;29;20052;-70
2022/09/13 01:41:21;;;;;;;;;;;17.30;99.90;;;;;;4888007;29;144222;-70
2022/09/13 01:44:02;;;;;;;24.15;16.88;;;17.30;99.90;;;;;;4908539;29;19926;-69
2022/09/13 01:46:57;;;;;;;24.75;16.98;;;17.30;99.90;;;;;;4865494;29;208587;-69
2022/09/13 01:49:54;;;;;;;24.23;16.80;;;17.40;99.90;;;;;;4912021;29;20055;-70
2022/09/13 01:52:44;;;;;;;25.25;18.05;;;17.40;99.90;;;;;;4860847;29;290763;-70
2022/09/13 01:55:28;;;;;;;27.10;17.50;;;17.40;99.90;;;;;;4863839;29;210970;-70
2022/09/13 01:58:27;;;;;;;23.15;17.25;;;17.40;99.90;;;;;;4920696;29;20056;-69
2022/09/13 02:01:16;;;;;;;26.80;18.55;;;17.40;99.90;;;;;;4875339;29;206156;-70
2022/09/13 02:03:54;;;;;;;30.50;19.85;;;17.40;99.90;;;;;;4933638;28;20055;-70
2022/09/13 02:06:26;;;;;;;28.45;20.88;;;17.40;99.90;;;;;;4940118;28;163311;-68
2022/09/13 02:08:59;;;;;;;31.02;21.75;;;17.40;99.90;;;;;;4988771;28;20050;-70
2022/09/13 02:11:26;;;;;;;29.02;20.67;;;17.40;99.90;;;;;;4949857;28;213104;-69
2022/09/13 02:13:55;;;;;;;29.20;20.92;;;17.40;99.90;;;;;;4980893;28;20054;-69
2022/09/13 02:16:34;;;;;;;30.25;21.23;;;17.40;99.90;;;;;;4952696;28;212361;-69
2022/09/13 02:19:18;;;;;;;32.60;22.45;;;17.40;99.90;;;;;;4985151;28;20054;-69
2022/09/13 02:21:50;;;;;;;34.72;24.45;;;17.40;99.90;;;;;;4910946;28;211757;-69
2022/09/13 02:24:31;;;;;;;36.75;25.23;;;17.40;99.90;;;;;;4978339;28;20508;-69
2022/09/13 02:27:01;;;;;;;38.85;26.42;;;17.30;99.90;;;;;;4930942;28;209799;-70
2022/09/13 02:29:31;;;;;;;36.88;25.50;;;17.40;99.90;;;;;;4966438;28;20051;-69
2022/09/13 02:32:31;;;;;;;38.65;26.85;;;17.30;99.90;;;;;;4921300;28;210463;-69
2022/09/13 02:35:01;;;;;;;35.53;25.48;;;17.40;99.90;;;;;;4947682;28;208283;-70
2022/09/13 02:37:30;;;;;;;36.28;25.67;;;17.40;99.90;;;;;;4954436;28;206701;-70
2022/09/13 02:40:01;;;;;;;42.92;27.95;;;17.30;99.90;;;;;;4970856;28;210393;-69
2022/09/13 02:42:35;;;;;;;;;;;17.30;99.90;;;;;;4968342;28;206318;-71
2022/09/13 02:45:02;;;;;;;37.07;26.30;;;17.30;99.90;;;;;;4946152;28;210194;-68
2022/09/13 02:47:56;;;;;;;44.40;27.90;;;17.30;99.90;;;;;;5002167;28;20067;-70
2022/09/13 02:50:36;;;;;;;38.42;25.90;;;17.30;99.90;;;;;;4918929;28;205673;-68
2022/09/13 02:53:14;;;;;;;34.53;24.67;;;17.30;99.90;;;;;;4992517;28;20054;-69
2022/09/13 02:56:10;;;;;;;43.78;26.75;;;17.20;99.90;;;;;;4941718;28;209364;-69
2022/09/13 02:59:11;;;;;;;41.42;26.40;;;17.20;99.90;;;;;;4977121;28;20050;-68
2022/09/13 03:01:38;;;;;;;38.00;25.67;;;17.20;99.90;;;;;;4953160;28;211200;-69
2022/09/13 03:04:05;;;;;;;36.30;24.30;;;17.20;99.90;;;;;;4989248;28;20068;-69
2022/09/13 03:06:31;;;;;;;36.88;24.10;;;17.20;99.90;;;;;;4940393;28;206885;-69
2022/09/13 03:09:02;;;;;;;36.10;24.52;;;17.20;99.90;;;;;;4979034;28;20050;-68
2022/09/13 03:11:44;;;;;;;35.08;24.10;;;17.20;99.90;;;;;;4920213;28;215538;-69
2022/09/13 03:14:44;;;;;;;35.70;24.40;;;17.20;99.90;;;;;;4961294;28;20062;-69
2022/09/13 03:17:49;;;;;;;34.90;22.52;;;17.20;99.90;;;;;;4919997;28;207313;-70
2022/09/13 03:20:34;;;;;;;33.00;22.30;;;17.30;99.90;;;;;;4924193;28;209540;-69
2022/09/13 03:23:48;;;;;;;29.48;20.42;;;17.30;99.90;;;;;;4978768;28;20042;-69
2022/09/13 03:26:26;;;;;;;28.88;20.80;;;17.30;99.90;;;;;;4892804;28;211739;-69
2022/09/13 03:29:03;;;;;;;33.85;22.40;;;17.30;99.90;;;;;;4940495;28;20051;-69
2022/09/13 03:31:44;;;;;;;39.25;22.77;;;17.30;99.90;;;;;;4884253;29;205960;-69
2022/09/13 03:34:25;;;;;;;36.17;23.30;;;17.30;99.90;;;;;;4938160;28;20063;-69
2022/09/13 03:37:09;;;;;;;29.13;19.58;;;17.30;99.90;;;;;;4892094;28;207882;-69
2022/09/13 03:39:35;;;;;;;31.48;20.15;;;17.40;99.90;;;;;;4963973;28;20062;-69
2022/09/13 03:42:11;;;;;;;29.48;20.25;;;17.40;99.90;;;;;;4907987;28;208687;-69
2022/09/13 03:44:41;;;;;;;30.02;20.00;;;17.40;99.90;;;;;;4947290;28;20051;-69
2022/09/13 03:47:07;;;;;;;31.70;20.85;;;17.40;99.90;;;;;;4907024;28;156244;-69
2022/09/13 03:49:38;;;;;;;36.63;21.35;;;17.50;99.90;;;;;;4940309;28;20063;-69
2022/09/13 03:52:04;;;;;;;41.00;21.77;;;17.50;99.90;;;;;;4900467;28;206812;-69
2022/09/13 03:54:35;;;;;;;35.72;21.95;;;17.50;99.90;;;;;;4962430;28;20298;-69
2022/09/13 03:57:16;;;;;;;38.60;21.92;;;17.60;99.90;;;;;;4906542;28;205552;-70
2022/09/13 03:59:50;;;;;;;32.60;21.02;;;17.50;99.90;;;;;;4944177;28;20567;-69
2022/09/13 04:02:18;;;;;;;34.42;21.80;;;17.60;99.90;;;;;;4919689;28;207559;-69
2022/09/13 04:04:46;;;;;;;37.45;22.05;;;17.50;99.90;;;;;;4981557;28;20046;-68
2022/09/13 04:07:19;;;;;;;32.92;20.27;;;17.60;99.90;;;;;;4947205;28;209009;-69
2022/09/13 04:09:46;;;;;;;32.30;20.00;;;17.60;99.90;;;;;;4975694;28;20057;-70
2022/09/13 04:12:14;;;;;;;33.20;19.65;;;17.60;99.90;;;;;;4920546;28;195503;-69
2022/09/13 04:14:42;;;;;;;31.52;18.50;;;17.60;99.90;;;;;;4978122;28;20050;-70
2022/09/13 04:17:09;;;;;;;28.08;16.77;;;17.60;99.90;;;;;;4952419;28;209789;-70
2022/09/13 04:19:36;;;;;;;27.38;16.92;;;17.60;99.90;;;;;;4981393;28;20496;-69
2022/09/13 04:22:02;;;;;;;28.23;17.17;;;17.60;99.90;;;;;;4951547;28;192753;-70
2022/09/13 04:24:30;;;;;;;24.85;16.33;;;17.60;99.90;;;;;;4979752;28;20051;-69
2022/09/13 04:26:57;;;;;;;25.42;16.08;;;17.60;99.90;;;;;;4940791;28;212217;-69
2022/09/13 04:29:24;;;;;;;26.08;14.85;;;17.60;99.90;;;;;;4983655;28;20555;-68
2022/09/13 04:31:53;;;;;;;22.25;13.77;;;17.60;99.90;;;;;;4955510;28;208730;-69
2022/09/13 04:34:21;;;;;;;20.92;13.13;;;17.60;99.90;;;;;;4982370;28;20065;-69
2022/09/13 04:36:48;;;;;;;20.15;12.48;;;17.60;99.90;;;;;;4956924;28;183008;-69
2022/09/13 04:39:14;;;;;;;17.70;11.75;;;17.60;99.90;;;;;;4985028;28;20069;-69
2022/09/13 04:41:43;;;;;;;20.83;11.90;;;17.60;99.90;;;;;;4928133;28;209499;-69
2022/09/13 04:44:10;;;;;;;19.35;11.50;;;17.60;99.90;;;;;;4961582;28;20061;-69
2022/09/13 04:46:36;;;;;;;16.80;10.02;;;17.60;99.90;;;;;;4951209;28;210699;-69
2022/09/13 04:49:02;;;;;;;14.20;8.98;;;17.60;99.90;;;;;;4984811;28;20061;-69
2022/09/13 04:51:29;;;;;;;16.48;8.57;;;17.60;99.90;;;;;;4949164;28;207654;-69
2022/09/13 04:53:55;;;;;;;13.23;8.00;;;17.50;99.90;;;;;;4988036;28;20503;-69
2022/09/13 04:56:23;;;;;;;13.45;8.13;;;17.50;99.90;;;;;;4930403;28;219568;-69
2022/09/13 04:58:54;;;;;;;13.70;7.35;;;17.60;99.90;;;;;;4976517;28;20051;-69
2022/09/13 05:01:21;;;;;;;14.35;6.85;;;17.60;99.90;;;;;;4942429;28;209029;-69
2022/09/13 05:03:49;;;;;;;12.30;5.95;;;17.50;99.90;;;;;;4996594;28;20045;-69
2022/09/13 05:06:16;;;;;;;10.93;4.70;;;17.50;99.90;;;;;;4946153;28;215098;-69
2022/09/13 05:08:43;;;;;;;11.73;5.45;;;17.50;99.90;;;;;;4977912;28;20050;-69
2022/09/13 05:11:10;;;;;;;12.48;4.50;;;17.50;99.90;;;;;;4938188;28;209469;-69
2022/09/13 05:13:36;;;;;;;10.55;3.92;;;17.50;99.90;;;;;;4981375;28;20066;-69
2022/09/13 05:16:06;;;;;;;10.30;4.10;;;17.40;99.90;;;;;;4940019;28;207322;-69
2022/09/13 05:18:35;;;;;;;13.45;3.65;;;17.40;99.90;;;;;;4985550;28;20050;-69
2022/09/13 05:21:03;;;;;;;10.40;3.63;;;17.40;99.90;;;;;;4952168;28;219449;-69
2022/09/13 05:23:42;;;;;;;10.63;3.80;;;17.40;99.90;;;;;;4984710;28;20054;-69
2022/09/13 05:26:08;;;;;;;11.43;3.70;;;17.50;99.90;;;;;;4943015;28;208716;-70
2022/09/13 05:28:35;;;;;;;12.63;4.10;;;17.50;99.90;;;;;;4980328;28;20419;-70
2022/09/13 05:31:23;;;;;;;9.20;3.70;;;17.40;99.90;;;;;;4946264;28;221210;-70
2022/09/13 05:33:54;;;;;;;9.20;3.45;;;17.40;99.90;;;;;;4984036;28;20054;-70
2022/09/13 05:36:22;;;;;;;11.50;3.03;;;17.40;99.90;;;;;;4939605;28;228131;-71
2022/09/13 05:38:49;;;;;;;10.10;3.30;;;17.40;99.90;;;;;;4992462;28;20790;-71
2022/09/13 05:41:18;;;;;;;10.32;3.30;;;17.40;99.90;;;;;;4933395;28;274977;-71
2022/09/13 05:43:45;;;;;;;9.85;3.30;;;17.40;99.90;;;;;;4986134;28;20054;-72
2022/09/13 05:46:16;;;;;;;10.52;2.63;;;17.40;99.90;;;;;;4964943;28;228705;-71
2022/09/13 05:48:43;;;;;;;11.02;3.10;;;17.50;99.90;;;;;;4988390;28;20046;-70
2022/09/13 05:51:20;;;;;;;10.18;2.83;;;17.40;99.90;;;;;;4937447;28;210434;-71
2022/09/13 05:53:48;;;;;;;10.40;2.70;;;17.40;99.90;;;;;;4985243;28;20054;-70
2022/09/13 05:56:16;;;;;;;10.18;2.92;;;17.40;99.90;;;;;;4940209;28;209458;-71
2022/09/13 05:58:44;;;;;;;10.40;3.25;;;17.40;99.90;;;;;;4989910;28;20447;-69
2022/09/13 06:01:11;;;;;;;11.30;3.28;;;17.40;99.90;;;;;;4941832;28;206159;-72
2022/09/13 06:03:38;;;;;;;12.32;3.33;;;17.40;99.90;;;;;;4984227;28;20479;-71
2022/09/13 06:06:05;;;;;;;14.13;2.95;;;17.40;99.90;;;;;;4941258;28;206937;-71
2022/09/13 06:08:32;;;;;;;9.23;2.58;;;17.40;99.90;;;;;;4984211;28;20449;-71
2022/09/13 06:11:01;;;;;;;9.55;2.85;;;17.30;99.90;;;;;;4943143;28;207773;-71
2022/09/13 06:13:28;;;;;;;10.05;2.70;;;17.30;99.90;;;;;;4985629;28;20051;-71
2022/09/13 06:15:55;;;;;;;9.10;2.95;;;17.30;99.90;;;;;;4941111;28;206313;-71
2022/09/13 06:18:23;;;;;;;11.98;3.53;;;17.30;99.90;;;;;;4979610;28;20827;-71
2022/09/13 06:20:50;;;;;;;8.40;3.08;;;17.30;99.90;;;;;;4945896;28;216106;-71
2022/09/13 06:23:16;;;;;;;11.10;3.33;;;17.40;99.90;;;;;;4998702;28;20058;-71
2022/09/13 06:25:43;;;;;;;11.35;3.50;;;17.30;99.90;;;;;;4952729;28;208082;-71
2022/09/13 06:28:09;;;;;;;12.90;2.90;;;17.30;99.90;;;;;;5010613;28;20054;-70
2022/09/13 06:30:35;;;;;;;9.52;2.70;;;17.30;99.90;;;;;;4961294;28;210545;-70
2022/09/13 06:33:02;;;;;;;10.43;2.63;;;17.30;99.90;;;;;;5018870;28;20034;-71
2022/09/13 06:35:28;;;;;;;10.90;2.50;;;17.30;99.90;;;;;;4964605;28;215710;-70
2022/09/13 06:37:56;;;;;;;10.93;2.80;;;17.30;99.90;;;;;;5019357;28;20054;-70
2022/09/13 06:40:22;;;;;;;11.45;2.83;;;17.30;99.90;;;;;;4965392;28;209610;-70
2022/09/13 06:42:48;;;;;;;13.63;2.75;;;17.40;99.90;;;;;;5008613;28;20061;-70
2022/09/13 06:45:15;;;;;;;10.45;2.33;;;17.40;99.90;;;;;;4968031;28;211462;-70
2022/09/13 06:47:41;;;;;;;12.23;2.65;;;17.40;99.90;;;;;;5008572;28;20050;-71
2022/09/13 06:50:08;;;;;;;12.88;2.42;;;17.40;99.90;;;;;;4959212;28;224094;-72
2022/09/13 06:52:34;;;;;;;12.82;2.67;;;17.50;99.90;;;;;;5027501;28;20050;-70
2022/09/13 06:55:00;;;;;;;9.23;2.30;;;17.50;99.90;;;;;;4970793;28;209532;-71
2022/09/13 06:57:29;;;;;;;14.38;2.70;;;17.50;99.90;;;;;;5010731;28;20059;-71
2022/09/13 06:59:55;;;;;;;10.70;2.20;;;17.60;99.90;;;;;;5002712;28;20072;-71
2022/09/13 07:02:21;;;;;;;10.18;2.08;;;17.60;99.90;;;;;;4982662;28;141617;-71
2022/09/13 07:04:47;;;;;;;10.00;2.15;;;17.60;99.90;;;;;;5002775;28;20062;-70
2022/09/13 07:07:13;;;;;;;13.00;2.53;;;17.60;99.90;;;;;;4954088;28;215364;-70
2022/09/13 07:09:41;;;;;;;9.77;1.98;;;17.60;99.90;;;;;;4985370;28;20069;-70
2022/09/13 07:12:07;;;;;;;13.02;2.58;;;17.70;99.90;;;;;;4910735;28;213738;-70
2022/09/13 07:14:33;;;;;;;12.25;2.70;;;17.90;99.90;;;;;;4969595;28;20451;-70
2022/09/13 07:16:59;;;;;;;11.07;1.85;;;18.50;99.90;;;;;;4939721;28;171046;-70
2022/09/13 07:19:27;;;;;;;9.90;2.13;;;18.60;99.90;;;;;;4966683;28;20073;-70
2022/09/13 07:21:55;;;;;;;11.80;2.03;;;19.00;99.90;;;;;;4932475;28;214523;-70
2022/09/13 07:24:22;;;;;;;7.90;1.80;;;19.10;99.90;;;;;;4969616;28;20062;-70
2022/09/13 07:26:49;;;;;;;11.82;2.00;;;19.10;99.90;;;;;;4944871;28;209454;-70
2022/09/13 07:29:18;;;;;;;12.32;1.70;;;19.00;99.90;;;;;;4987180;28;20444;-70
2022/09/13 07:31:46;;;;;;;9.23;1.80;;;19.00;99.90;;;;;;4940907;28;209340;-70
2022/09/13 07:34:15;;;;;;;8.80;1.52;;;19.50;99.90;;;;;;4990426;28;20511;-70
2022/09/13 07:36:42;;;;;;;9.13;1.70;;;20.00;99.90;;;;;;4951395;28;219063;-70
2022/09/13 07:39:08;;;;;;;11.25;1.80;;;20.20;99.90;;;;;;4989080;28;20050;-69
2022/09/13 07:41:35;;;;;;;9.20;1.50;;;20.40;99.90;;;;;;4945888;28;209127;-69
2022/09/13 07:44:03;;;;;;;9.65;1.50;;;20.50;99.90;;;;;;4985937;28;20069;-68
2022/09/13 07:46:32;;;;;;;10.82;1.40;;;20.70;99.90;;;;;;4953590;28;209571;-70
2022/09/13 07:49:00;;;;;;;10.38;1.38;;;20.70;99.90;;;;;;4987007;28;20411;-69
2022/09/13 07:51:33;;;;;;;8.75;1.45;;;20.20;99.90;;;;;;4911395;28;212687;-70
2022/09/13 07:54:05;;;;;;;9.65;1.50;;;20.00;99.90;;;;;;4956704;28;20054;-68
2022/09/13 07:56:33;;;;;;;7.53;1.02;;;19.80;99.90;;;;;;4907723;28;210027;-69
2022/09/13 07:59:01;;;;;;;11.98;1.13;;;20.00;99.90;;;;;;4952411;28;20061;-69
2022/09/13 08:01:29;;;;;;;11.52;1.80;;;19.70;99.90;;;;;;4923673;28;217953;-69
2022/09/13 08:04:01;;;;;;;8.00;1.25;;;19.60;99.90;;;;;;4966067;28;20063;-67
2022/09/13 08:06:30;;;;;;;7.93;1.30;;;19.60;99.90;;;;;;4918545;28;209362;-69
2022/09/13 08:08:57;;;;;;;6.72;1.02;;;19.80;99.90;;;;;;4962623;28;20051;-69
2022/09/13 08:11:36;;;;;;;7.35;1.02;;;20.30;99.90;;;;;;4917697;28;213305;-69
2022/09/13 08:14:03;;;;;;;6.25;0.90;;;20.50;99.90;;;;;;4963002;28;20058;-68
2022/09/13 08:16:30;;;;;;;5.40;0.90;;;20.70;99.90;;;;;;4924418;28;206882;-69
2022/09/13 08:18:59;;;;;;;8.35;1.10;;;20.80;99.90;;;;;;4968896;28;20416;-67
2022/09/13 08:21:26;;;;;;;11.13;1.05;;;20.80;99.90;;;;;;4925831;28;206553;-69
2022/09/13 08:23:58;;;;;;;11.48;1.48;;;20.60;99.90;;;;;;4969642;28;20042;-69
2022/09/13 08:26:25;;;;;;;8.38;1.10;;;21.00;99.90;;;;;;4909985;28;205391;-69
2022/09/13 08:28:56;;;;;;;8.52;1.10;;;21.20;99.90;;;;;;4964055;28;20520;-69
2022/09/13 08:31:22;;;;;;;7.65;1.02;;;21.30;99.90;;;;;;4924699;28;209409;-68
2022/09/13 08:33:48;;;;;;;7.40;1.08;;;21.30;99.90;;;;;;4964001;28;20501;-67
2022/09/13 08:36:15;;;;;;;10.32;1.02;;;21.20;99.90;;;;;;4920417;28;223083;-68
2022/09/13 08:38:50;;;;;;;8.27;1.15;;;21.10;99.90;;;;;;4963982;28;20118;-69
2022/09/13 08:41:24;;;;;;;9.60;1.20;;;21.50;99.90;;;;;;4928520;28;209093;-69
2022/09/13 08:44:22;;;;;;;7.00;0.98;;;21.80;99.90;;;;;;4967169;28;20425;-69
2022/09/13 08:46:49;;;;;;;7.60;0.95;;;22.30;99.90;;;;;;4933273;28;206185;-68
2022/09/13 08:49:21;;;;;;;10.55;1.42;;;22.60;99.90;;;;;;4964881;28;20444;-69
2022/09/13 08:51:56;;;;;;;6.90;0.90;;;22.10;99.90;;;;;;4930545;28;209912;-68
2022/09/13 08:54:22;;;;;;;7.10;0.90;;;22.40;99.90;;;;;;4984102;28;20062;-69
2022/09/13 08:57:07;;;;;;;8.48;1.00;;;22.70;99.90;;;;;;4936999;28;209769;-68
2022/09/13 08:59:46;;;;;;;8.50;1.00;;;22.60;99.90;;;;;;4963278;28;20058;-69
2022/09/13 09:02:33;;;;;;;9.98;1.42;;;23.10;99.50;;;;;;4936220;28;209066;-68
2022/09/13 09:05:22;;;;;;;9.18;1.10;;;23.30;99.90;;;;;;4934453;28;209711;-69
2022/09/13 09:07:51;;;;;;;7.88;1.10;;;22.20;99.90;;;;;;4949592;28;206645;-68
2022/09/13 09:10:31;;;;;;;7.47;1.08;;;22.20;99.90;;;;;;4920867;28;208068;-67
2022/09/13 09:13:06;;;;;;;10.18;1.17;;;22.30;99.90;;;;;;4964615;28;20508;-68
2022/09/13 09:16:21;;;;;;;9.82;1.00;;;21.60;99.90;;;;;;4919716;28;215463;-68
2022/09/13 09:18:48;;;;;;;8.38;0.90;;;22.00;99.20;;;;;;4956238;28;20505;-68
2022/09/13 09:21:17;;;;;;;9.45;1.10;;;22.60;99.90;;;;;;4927411;28;211103;-68
2022/09/13 09:23:51;;;;;;;9.75;1.30;;;23.10;99.90;;;;;;4971916;28;20058;-68
2022/09/13 09:26:22;;;;;;;10.02;0.95;;;23.30;99.10;;;;;;4926860;28;208806;-68
2022/09/13 09:28:58;;;;;;;8.23;1.13;;;22.90;99.60;;;;;;4963759;28;20058;-69
2022/09/13 09:31:48;;;;;;;8.88;1.30;;;22.70;99.90;;;;;;4916957;28;209985;-68
2022/09/13 09:34:25;;;;;;;6.90;0.90;;;22.90;99.30;;;;;;4967329;28;20058;-68
2022/09/13 09:37:02;;;;;;;6.63;1.08;;;22.60;99.90;;;;;;4939490;28;208221;-68
2022/09/13 09:39:38;;;;;;;8.55;1.10;;;22.90;99.50;;;;;;4964014;28;20805;-68
2022/09/13 09:42:25;;;;;;;9.48;1.23;;;23.20;99.20;;;;;;4935918;28;210797;-69
2022/09/13 09:45:01;;;;;;;8.05;1.10;;;23.80;98.60;;;;;;4965950;28;20059;-68
2022/09/13 09:47:32;;;;;;;9.60;1.30;;;24.10;97.20;;;;;;4947511;28;154007;-69
2022/09/13 09:50:18;;;;;;;8.02;1.10;;;24.30;98.10;;;;;;4965965;28;210896;-68
2022/09/13 09:53:07;;;;;;;6.70;1.00;;;24.70;96.30;;;;;;4962935;28;205889;-69
2022/09/13 09:55:45;;;;;;;6.85;0.80;;;24.10;95.80;;;;;;4931185;28;210687;-68
2022/09/13 09:58:15;;;;;;;8.23;1.10;;;23.30;95.80;;;;;;4981879;28;20499;-69
2022/09/13 10:00:56;;;;;;;8.82;1.20;;;23.00;97.50;;;;;;4956096;28;209867;-68
2022/09/13 10:03:28;;;;;;;9.40;1.02;;;23.40;95.80;;;;;;4981163;28;20055;-68
2022/09/13 10:06:26;;;;;;;7.38;0.95;;;23.80;96.70;;;;;;4947683;28;205806;-69
2022/09/13 10:09:05;;;;;;;7.07;0.98;;;24.10;92.90;;;;;;4910357;29;20055;-68
2022/09/13 10:11:58;;;;;;;9.82;1.20;;;24.20;95.80;;;;;;4889251;28;209748;-69
2022/09/13 10:14:35;;;;;;;7.40;1.00;;;24.40;94.30;;;;;;4910626;29;20059;-69
2022/09/13 10:17:24;;;;;;;8.80;1.00;;;24.80;94.40;;;;;;4865784;29;209821;-69
2022/09/13 10:19:53;;;;;;;8.63;1.30;;;24.50;94.80;;;;;;4914476;29;20058;-69
2022/09/13 10:22:20;;;;;;;7.82;1.20;;;23.60;93.60;;;;;;4886828;29;209126;-68
2022/09/13 10:24:47;;;;;;;10.75;1.20;;;23.00;93.40;;;;;;4929943;29;20091;-68
2022/09/13 10:27:33;;;;;;;8.45;1.23;;;22.50;94.10;;;;;;4881410;29;207652;-68
2022/09/13 10:30:02;;;;;;;8.52;1.27;;;23.20;96.90;;;;;;4893501;29;162573;-69
2022/09/13 10:32:29;;;;;;;9.75;1.40;;;24.10;96.30;;;;;;4899051;29;208148;-69
2022/09/13 10:35:09;;;;;;;5.93;0.90;;;24.30;94.70;;;;;;4902953;29;210730;-69
2022/09/13 10:37:36;;;;;;;8.98;1.27;;;24.60;94.70;;;;;;4891409;29;177355;-69
2022/09/13 10:40:12;;;;;;;9.07;1.10;;;25.00;93.70;;;;;;4871689;29;206128;-69
2022/09/13 10:42:38;;;;;;;8.18;1.00;;;25.30;94.80;;;;;;4929539;29;20055;-68
2022/09/13 10:45:06;;;;;;;8.30;1.10;;;25.00;93.30;;;;;;4896175;28;210133;-68
2022/09/13 10:47:38;;;;;;;8.70;1.20;;;24.90;92.70;;;;;;4991659;28;20081;-69
2022/09/13 10:50:26;;;;;;;6.27;0.90;;;25.20;92.90;;;;;;4949413;28;213464;-68
2022/09/13 10:52:56;;;;;;;7.50;1.10;;;25.70;91.90;;;;;;4983813;28;20069;-68
2022/09/13 10:55:24;;;;;;;;;;;25.80;92.40;;;;;;4941825;28;209860;-68
2022/09/13 10:58:14;;;;;;;10.13;1.30;;;25.80;90.00;;;;;;5000315;28;20400;-69
2022/09/13 11:00:49;;;;;;;6.97;1.03;;;26.00;91.10;;;;;;4936128;28;208127;-68
2022/09/13 11:03:41;;;;;;;9.90;1.27;;;26.50;90.60;;;;;;4989023;28;20069;-70
2022/09/13 11:06:35;;;;;;;9.75;1.20;;;25.60;88.40;;;;;;4948440;28;209434;-69
2022/09/13 11:09:20;;;;;;;9.23;1.48;;;25.30;87.60;;;;;;4925414;28;20055;-69
2022/09/13 11:12:02;;;;;;;8.60;1.25;;;24.10;90.60;;;;;;4905696;28;204528;-69
2022/09/13 11:14:52;;;;;;;8.93;1.20;;;23.50;92.70;;;;;;4926147;29;20070;-70
2022/09/13 11:17:27;;;;;;;;;;;23.70;93.90;;;;;;4917460;28;221185;-69
2022/09/13 11:20:02;;;;;;;10.20;1.48;;;23.80;92.50;;;;;;4948757;28;19934;-70
2022/09/13 11:22:53;;;;;;;9.63;1.80;;;23.10;92.00;;;;;;4888425;28;207736;-69
2022/09/13 11:25:32;;;;;;;;;;;22.60;92.70;;;;;;4886446;28;205598;-69
2022/09/13 11:28:15;;;;;;;7.10;1.10;;;23.30;92.90;;;;;;4936103;28;19918;-69
2022/09/13 11:31:20;;;;;;;8.07;1.17;;;24.00;92.40;;;;;;4902679;28;205533;-70
2022/09/13 11:34:23;;;;;;;7.30;1.15;;;24.70;91.40;;;;;;4946417;28;20051;-70
2022/09/13 11:37:24;;;;;;;9.73;1.55;;;25.40;90.30;;;;;;4908874;28;206303;-70
2022/09/13 11:40:15;;;;;;;9.52;0.90;;;25.50;87.50;;;;;;4915349;29;20067;-70
2022/09/13 11:43:22;;;;;;;8.65;1.13;;;25.60;87.70;;;;;;4877494;29;203500;-70
2022/09/13 11:46:07;;;;;;;7.50;1.20;;;25.90;89.90;;;;;;4839751;29;211869;-70
2022/09/13 11:48:36;;;;;;;8.35;1.10;;;25.50;88.80;;;;;;4886949;29;20056;-70
2022/09/13 11:51:47;;;;;;;8.93;1.20;;;24.70;87.70;;;;;;4831560;29;205537;-70
2022/09/13 11:54:16;;;;;;;7.75;1.00;;;24.40;88.30;;;;;;4891605;29;20074;-70
2022/09/13 11:56:51;;;;;;;9.13;1.30;;;24.00;90.40;;;;;;4849604;29;230636;-70
2022/09/13 11:59:39;;;;;;;7.63;1.15;;;24.20;87.60;;;;;;4898214;29;20060;-70
2022/09/13 12:02:35;;;;;;;7.25;1.10;;;24.30;88.10;;;;;;4847204;29;206754;-70
2022/09/13 12:05:07;;;;;;;5.25;0.90;;;24.70;87.30;;;;;;4863627;29;109703;-70
2022/09/13 12:07:39;;;;;;;6.90;1.00;;;25.20;85.40;;;;;;4886212;29;20045;-71
2022/09/13 12:10:16;;;;;;;8.82;1.13;;;25.50;85.10;;;;;;4824690;29;218674;-70
2022/09/13 12:12:43;;;;;;;9.25;1.10;;;25.70;84.10;;;;;;4876320;29;20061;-70
2022/09/13 12:15:37;;;;;;;6.90;1.10;;;25.90;83.70;;;;;;4856887;29;209135;-70
2022/09/13 12:18:18;;;;;;;8.77;1.27;;;26.20;82.20;;;;;;4905945;28;20709;-71
2022/09/13 12:20:52;;;;;;;9.35;1.40;;;26.60;83.30;;;;;;4891855;28;210689;-70
2022/09/13 12:23:28;;;;;;;7.10;1.20;;;27.00;81.20;;;;;;4968319;28;20066;-70
2022/09/13 12:26:04;;;;;;;9.43;1.38;;;26.70;79.40;;;;;;4949052;28;210482;-70
2022/09/13 12:28:43;;;;;;;6.85;1.00;;;25.60;79.00;;;;;;4989194;28;20439;-71
2022/09/13 12:31:15;;;;;;;8.45;1.20;;;25.00;80.20;;;;;;4948573;28;117005;-71
2022/09/13 12:33:42;;;;;;;8.40;1.20;;;24.90;81.00;;;;;;4973608;28;20061;-70
2022/09/13 12:36:17;;;;;;;8.07;1.10;;;24.40;82.00;;;;;;4953007;28;210183;-69
2022/09/13 12:39:14;;;;;;;8.77;1.10;;;24.60;79.10;;;;;;4986475;28;20069;-70
2022/09/13 12:42:07;;;;;;;6.78;1.00;;;24.50;80.60;;;;;;4953838;28;210445;-70
2022/09/13 12:45:06;;;;;;;6.72;0.90;;;25.00;82.70;;;;;;4961464;28;20062;-68
2022/09/13 12:47:38;;;;;;;6.93;1.20;;;25.30;80.10;;;;;;4889400;28;210526;-70
2022/09/13 12:50:42;;;;;;;9.93;1.40;;;25.30;79.30;;;;;;4921956;28;209780;-68
2022/09/13 12:53:44;;;;;;;8.13;1.38;;;25.60;81.80;;;;;;4937232;28;20055;-70
2022/09/13 12:56:34;;;;;;;6.85;0.93;;;25.30;79.90;;;;;;4898542;28;212930;-69
2022/09/13 12:59:23;;;;;;;7.80;1.20;;;25.10;79.40;;;;;;4945964;28;20055;-70
2022/09/13 13:01:51;;;;;;;7.05;1.33;;;25.10;79.00;;;;;;4914342;28;204434;-70
2022/09/13 13:04:23;;;;;;;10.32;1.10;;;25.50;81.40;;;;;;4949945;28;20047;-71
2022/09/13 13:06:51;;;;;;;6.80;1.10;;;25.90;79.10;;;;;;4877955;29;211978;-70
2022/09/13 13:09:23;;;;;;;8.25;1.10;;;26.00;78.40;;;;;;4941777;28;20063;-70
2022/09/13 13:11:50;;;;;;;8.82;1.35;;;26.20;77.00;;;;;;4898906;28;207226;-70